Ladysmith, Canada
Current Conditions -  °F | °C
As of 8:00 PM on Friday 24 Oct 2014 (Local Time) from CYCD Reporting Station
Overcast Overcast  
Wind Chill: 48°   Ceiling: 13000
Heat Index: 48°   Visibility: 20mi
Dew Point: 46°   Wind: 0mph
Humidity: 93%   Direction: NA
Pressure: 29.9"   Gusts: NA
Location:  48.98°N, 123.82°W
Report Text: CYCD 250300Z 00000KT 20SM SCT050 OVC130 09/08 A2990 RMK SC4AC4 SLP127
Loading
Personal Weather Stations






























Interactive Weather Map
Tropical Storm Tracking
New forecast layout! Learn more

10-Day Weather Forecast

Advertisements
Track Severe Weather on mobile